sensor_id;sensor_type;location;lat;lon;timestamp;temperature;humidity
19415;DHT22;9843;48.882;12.592;2022-11-20T00:00:16;1.80;99.90
19415;DHT22;9843;48.882;12.592;2022-11-20T00:02:43;1.80;99.90
19415;DHT22;9843;48.882;12.592;2022-11-20T00:05:09;1.80;99.90
19415;DHT22;9843;48.882;12.592;2022-11-20T00:07:36;1.80;99.90
19415;DHT22;9843;48.882;12.592;2022-11-20T00:10:05;1.80;99.90
19415;DHT22;9843;48.882;12.592;2022-11-20T00:12:32;1.80;99.90
19415;DHT22;9843;48.882;12.592;2022-11-20T00:14:59;1.80;99.90
19415;DHT22;9843;48.882;12.592;2022-11-20T00:17:25;1.70;99.90
19415;DHT22;9843;48.882;12.592;2022-11-20T00:19:52;1.80;99.90
19415;DHT22;9843;48.882;12.592;2022-11-20T00:22:19;1.70;99.90
19415;DHT22;9843;48.882;12.592;2022-11-20T00:24:46;1.70;99.90
19415;DHT22;9843;48.882;12.592;2022-11-20T00:27:14;1.70;99.90
19415;DHT22;9843;48.882;12.592;2022-11-20T00:29:41;1.80;99.90
19415;DHT22;9843;48.882;12.592;2022-11-20T00:32:07;1.80;99.90
19415;DHT22;9843;48.882;12.592;2022-11-20T00:34:34;1.80;99.90
19415;DHT22;9843;48.882;12.592;2022-11-20T00:37:01;1.80;99.90
19415;DHT22;9843;48.882;12.592;2022-11-20T00:39:28;1.80;99.90
19415;DHT22;9843;48.882;12.592;2022-11-20T00:41:54;1.80;99.90
19415;DHT22;9843;48.882;12.592;2022-11-20T00:44:22;1.80;99.90
19415;DHT22;9843;48.882;12.592;2022-11-20T00:46:49;1.80;99.90
19415;DHT22;9843;48.882;12.592;2022-11-20T00:49:16;1.80;99.90
19415;DHT22;9843;48.882;12.592;2022-11-20T00:51:43;1.80;99.90
19415;DHT22;9843;48.882;12.592;2022-11-20T00:54:09;1.80;99.90
19415;DHT22;9843;48.882;12.592;2022-11-20T00:56:36;1.80;99.90
19415;DHT22;9843;48.882;12.592;2022-11-20T00:59:03;1.80;99.90
19415;DHT22;9843;48.882;12.592;2022-11-20T01:01:31;1.80;99.90
19415;DHT22;9843;48.882;12.592;2022-11-20T01:03:59;1.80;99.90
19415;DHT22;9843;48.882;12.592;2022-11-20T01:06:28;1.80;99.90
19415;DHT22;9843;48.882;12.592;2022-11-20T01:08:56;1.80;99.90
19415;DHT22;9843;48.882;12.592;2022-11-20T01:11:25;1.80;99.90
19415;DHT22;9843;48.882;12.592;2022-11-20T01:13:53;1.80;99.90
19415;DHT22;9843;48.882;12.592;2022-11-20T01:16:23;1.90;99.90
19415;DHT22;9843;48.882;12.592;2022-11-20T01:18:53;1.90;99.90
19415;DHT22;9843;48.882;12.592;2022-11-20T01:21:23;1.80;99.90
19415;DHT22;9843;48.882;12.592;2022-11-20T01:23:50;1.80;99.90
19415;DHT22;9843;48.882;12.592;2022-11-20T01:26:19;1.80;99.90
19415;DHT22;9843;48.882;12.592;2022-11-20T01:28:47;1.70;99.90
19415;DHT22;9843;48.882;12.592;2022-11-20T01:31:16;1.80;99.90
19415;DHT22;9843;48.882;12.592;2022-11-20T01:33:44;1.80;99.90
19415;DHT22;9843;48.882;12.592;2022-11-20T01:36:13;1.90;99.90
19415;DHT22;9843;48.882;12.592;2022-11-20T01:38:41;1.80;99.90
19415;DHT22;9843;48.882;12.592;2022-11-20T01:41:10;1.80;99.90
19415;DHT22;9843;48.882;12.592;2022-11-20T01:43:57;1.90;99.90
19415;DHT22;9843;48.882;12.592;2022-11-20T01:46:23;1.90;99.90
19415;DHT22;9843;48.882;12.592;2022-11-20T01:48:55;1.90;99.90
19415;DHT22;9843;48.882;12.592;2022-11-20T01:51:29;1.90;99.90
19415;DHT22;9843;48.882;12.592;2022-11-20T01:53:58;1.80;99.90
19415;DHT22;9843;48.882;12.592;2022-11-20T01:56:27;1.90;99.90
19415;DHT22;9843;48.882;12.592;2022-11-20T01:58:58;1.90;99.90
19415;DHT22;9843;48.882;12.592;2022-11-20T02:01:26;2.00;99.90
19415;DHT22;9843;48.882;12.592;2022-11-20T02:03:53;2.00;99.90
19415;DHT22;9843;48.882;12.592;2022-11-20T02:06:24;2.10;99.90
19415;DHT22;9843;48.882;12.592;2022-11-20T02:08:54;2.10;99.90
19415;DHT22;9843;48.882;12.592;2022-11-20T02:11:21;2.10;99.90
19415;DHT22;9843;48.882;12.592;2022-11-20T02:13:48;2.10;99.90
19415;DHT22;9843;48.882;12.592;2022-11-20T02:16:17;2.10;99.90
19415;DHT22;9843;48.882;12.592;2022-11-20T02:18:46;2.10;99.90
19415;DHT22;9843;48.882;12.592;2022-11-20T02:24:06;2.20;99.90
19415;DHT22;9843;48.882;12.592;2022-11-20T02:26:37;2.10;99.90
19415;DHT22;9843;48.882;12.592;2022-11-20T02:29:04;2.10;99.90
19415;DHT22;9843;48.882;12.592;2022-11-20T02:31:37;2.10;99.90
19415;DHT22;9843;48.882;12.592;2022-11-20T02:34:04;2.10;99.90
19415;DHT22;9843;48.882;12.592;2022-11-20T02:36:33;2.10;99.90
19415;DHT22;9843;48.882;12.592;2022-11-20T02:39:01;2.10;99.90
19415;DHT22;9843;48.882;12.592;2022-11-20T02:41:35;2.10;99.90
19415;DHT22;9843;48.882;12.592;2022-11-20T02:44:02;2.10;99.90
19415;DHT22;9843;48.882;12.592;2022-11-20T02:46:30;2.30;99.90
19415;DHT22;9843;48.882;12.592;2022-11-20T02:48:57;2.30;99.90
19415;DHT22;9843;48.882;12.592;2022-11-20T02:51:23;2.30;99.90
19415;DHT22;9843;48.882;12.592;2022-11-20T02:53:50;2.20;99.90
19415;DHT22;9843;48.882;12.592;2022-11-20T02:56:17;2.30;99.90
19415;DHT22;9843;48.882;12.592;2022-11-20T02:58:45;2.30;99.90
19415;DHT22;9843;48.882;12.592;2022-11-20T03:01:12;2.40;99.90
19415;DHT22;9843;48.882;12.592;2022-11-20T03:03:39;2.30;99.90
19415;DHT22;9843;48.882;12.592;2022-11-20T03:06:06;2.40;99.90
19415;DHT22;9843;48.882;12.592;2022-11-20T03:08:34;2.40;99.90
19415;DHT22;9843;48.882;12.592;2022-11-20T03:11:05;2.40;99.90
19415;DHT22;9843;48.882;12.592;2022-11-20T03:13:32;2.50;99.90
19415;DHT22;9843;48.882;12.592;2022-11-20T03:16:07;2.40;99.90
19415;DHT22;9843;48.882;12.592;2022-11-20T03:18:34;2.40;99.90
19415;DHT22;9843;48.882;12.592;2022-11-20T03:21:01;2.40;99.90
19415;DHT22;9843;48.882;12.592;2022-11-20T03:23:29;2.40;99.90
19415;DHT22;9843;48.882;12.592;2022-11-20T03:26:07;2.50;99.90
19415;DHT22;9843;48.882;12.592;2022-11-20T03:28:34;2.50;99.90
19415;DHT22;9843;48.882;12.592;2022-11-20T03:31:09;2.50;99.90
19415;DHT22;9843;48.882;12.592;2022-11-20T03:33:36;2.50;99.90
19415;DHT22;9843;48.882;12.592;2022-11-20T03:36:04;2.50;99.90
19415;DHT22;9843;48.882;12.592;2022-11-20T03:38:32;2.50;99.90
19415;DHT22;9843;48.882;12.592;2022-11-20T03:41:00;2.50;99.90
19415;DHT22;9843;48.882;12.592;2022-11-20T03:43:27;2.50;99.90
19415;DHT22;9843;48.882;12.592;2022-11-20T03:45:54;2.50;99.90
19415;DHT22;9843;48.882;12.592;2022-11-20T03:48:23;2.40;99.90
19415;DHT22;9843;48.882;12.592;2022-11-20T03:50:50;2.40;99.90
19415;DHT22;9843;48.882;12.592;2022-11-20T03:53:17;2.40;99.90
19415;DHT22;9843;48.882;12.592;2022-11-20T03:55:44;2.40;99.90
19415;DHT22;9843;48.882;12.592;2022-11-20T03:58:11;2.40;99.90
19415;DHT22;9843;48.882;12.592;2022-11-20T04:00:38;2.30;99.90
19415;DHT22;9843;48.882;12.592;2022-11-20T04:03:05;2.40;99.90
19415;DHT22;9843;48.882;12.592;2022-11-20T04:05:34;2.40;99.90
19415;DHT22;9843;48.882;12.592;2022-11-20T04:08:01;2.30;99.90
19415;DHT22;9843;48.882;12.592;2022-11-20T04:10:28;2.40;99.90
19415;DHT22;9843;48.882;12.592;2022-11-20T04:12:55;2.40;99.90
19415;DHT22;9843;48.882;12.592;2022-11-20T04:15:21;2.40;99.90
19415;DHT22;9843;48.882;12.592;2022-11-20T04:17:48;2.20;99.90
19415;DHT22;9843;48.882;12.592;2022-11-20T04:20:15;2.30;99.90
19415;DHT22;9843;48.882;12.592;2022-11-20T04:22:43;2.30;99.90
19415;DHT22;9843;48.882;12.592;2022-11-20T04:25:10;2.30;99.90
19415;DHT22;9843;48.882;12.592;2022-11-20T04:27:37;2.20;99.90
19415;DHT22;9843;48.882;12.592;2022-11-20T04:30:05;2.30;99.90
19415;DHT22;9843;48.882;12.592;2022-11-20T04:32:32;2.30;99.90
19415;DHT22;9843;48.882;12.592;2022-11-20T04:34:58;2.30;99.90
19415;DHT22;9843;48.882;12.592;2022-11-20T04:37:25;2.20;99.90
19415;DHT22;9843;48.882;12.592;2022-11-20T04:39:53;2.20;99.90
19415;DHT22;9843;48.882;12.592;2022-11-20T04:42:20;2.20;99.90
19415;DHT22;9843;48.882;12.592;2022-11-20T04:44:56;2.20;99.90
19415;DHT22;9843;48.882;12.592;2022-11-20T04:47:23;2.20;99.90
19415;DHT22;9843;48.882;12.592;2022-11-20T04:49:50;2.30;99.90
19415;DHT22;9843;48.882;12.592;2022-11-20T04:52:17;2.30;99.90
19415;DHT22;9843;48.882;12.592;2022-11-20T04:54:44;2.30;99.90
19415;DHT22;9843;48.882;12.592;2022-11-20T04:57:14;2.30;99.90
19415;DHT22;9843;48.882;12.592;2022-11-20T04:59:41;2.30;99.90
19415;DHT22;9843;48.882;12.592;2022-11-20T05:02:08;2.30;99.90
19415;DHT22;9843;48.882;12.592;2022-11-20T05:04:35;2.20;99.90
19415;DHT22;9843;48.882;12.592;2022-11-20T05:07:02;2.10;99.90
19415;DHT22;9843;48.882;12.592;2022-11-20T05:09:29;2.30;99.90
19415;DHT22;9843;48.882;12.592;2022-11-20T05:11:56;2.30;99.90
19415;DHT22;9843;48.882;12.592;2022-11-20T05:14:24;2.30;99.90
19415;DHT22;9843;48.882;12.592;2022-11-20T05:16:51;2.30;99.90
19415;DHT22;9843;48.882;12.592;2022-11-20T05:19:18;2.30;99.90
19415;DHT22;9843;48.882;12.592;2022-11-20T05:21:44;2.30;99.90
19415;DHT22;9843;48.882;12.592;2022-11-20T05:24:11;2.40;99.90
19415;DHT22;9843;48.882;12.592;2022-11-20T05:26:38;2.40;99.90
19415;DHT22;9843;48.882;12.592;2022-11-20T05:29:05;2.40;99.90
19415;DHT22;9843;48.882;12.592;2022-11-20T05:31:33;2.40;99.90
19415;DHT22;9843;48.882;12.592;2022-11-20T05:34:00;2.40;99.90
19415;DHT22;9843;48.882;12.592;2022-11-20T05:36:26;2.30;99.90
19415;DHT22;9843;48.882;12.592;2022-11-20T05:38:53;2.30;99.90
19415;DHT22;9843;48.882;12.592;2022-11-20T05:41:20;2.20;99.90
19415;DHT22;9843;48.882;12.592;2022-11-20T05:43:48;2.30;99.90
19415;DHT22;9843;48.882;12.592;2022-11-20T05:46:17;2.20;99.90
19415;DHT22;9843;48.882;12.592;2022-11-20T05:48:46;2.10;99.90
19415;DHT22;9843;48.882;12.592;2022-11-20T05:51:14;2.10;99.90
19415;DHT22;9843;48.882;12.592;2022-11-20T05:53:41;2.10;99.90
19415;DHT22;9843;48.882;12.592;2022-11-20T05:56:10;2.10;99.90
19415;DHT22;9843;48.882;12.592;2022-11-20T05:58:38;2.10;99.90
19415;DHT22;9843;48.882;12.592;2022-11-20T06:01:06;2.20;99.90
19415;DHT22;9843;48.882;12.592;2022-11-20T06:03:33;2.30;99.90
19415;DHT22;9843;48.882;12.592;2022-11-20T06:06:02;2.20;99.90
19415;DHT22;9843;48.882;12.592;2022-11-20T06:08:29;2.20;99.90
19415;DHT22;9843;48.882;12.592;2022-11-20T06:10:56;2.20;99.90
19415;DHT22;9843;48.882;12.592;2022-11-20T06:13:24;2.20;99.90
19415;DHT22;9843;48.882;12.592;2022-11-20T06:15:51;2.10;99.90
19415;DHT22;9843;48.882;12.592;2022-11-20T06:18:19;2.10;99.90
19415;DHT22;9843;48.882;12.592;2022-11-20T06:20:46;2.10;99.90
19415;DHT22;9843;48.882;12.592;2022-11-20T06:23:14;2.20;99.90
19415;DHT22;9843;48.882;12.592;2022-11-20T06:25:42;2.10;99.90
19415;DHT22;9843;48.882;12.592;2022-11-20T06:28:09;2.20;99.90
19415;DHT22;9843;48.882;12.592;2022-11-20T06:30:36;2.20;99.90
19415;DHT22;9843;48.882;12.592;2022-11-20T06:33:03;2.20;99.90
19415;DHT22;9843;48.882;12.592;2022-11-20T06:35:29;2.20;99.90
19415;DHT22;9843;48.882;12.592;2022-11-20T06:37:56;2.30;99.90
19415;DHT22;9843;48.882;12.592;2022-11-20T06:40:24;2.20;99.90
19415;DHT22;9843;48.882;12.592;2022-11-20T06:42:53;2.30;99.90
19415;DHT22;9843;48.882;12.592;2022-11-20T06:45:20;2.20;99.90
19415;DHT22;9843;48.882;12.592;2022-11-20T06:47:46;2.20;99.90
19415;DHT22;9843;48.882;12.592;2022-11-20T06:50:13;2.20;99.90
19415;DHT22;9843;48.882;12.592;2022-11-20T06:52:40;2.20;99.90
19415;DHT22;9843;48.882;12.592;2022-11-20T06:55:07;2.20;99.90
19415;DHT22;9843;48.882;12.592;2022-11-20T06:57:36;2.30;99.90
19415;DHT22;9843;48.882;12.592;2022-11-20T07:00:03;2.30;99.90
19415;DHT22;9843;48.882;12.592;2022-11-20T07:02:30;2.30;99.90
19415;DHT22;9843;48.882;12.592;2022-11-20T07:04:56;2.40;99.90
19415;DHT22;9843;48.882;12.592;2022-11-20T07:07:23;2.40;99.90
19415;DHT22;9843;48.882;12.592;2022-11-20T07:09:50;2.50;99.90
19415;DHT22;9843;48.882;12.592;2022-11-20T07:12:17;2.50;99.90
19415;DHT22;9843;48.882;12.592;2022-11-20T07:14:45;2.50;99.90
19415;DHT22;9843;48.882;12.592;2022-11-20T07:17:12;2.60;99.90
19415;DHT22;9843;48.882;12.592;2022-11-20T07:19:39;2.60;99.90
19415;DHT22;9843;48.882;12.592;2022-11-20T07:22:05;2.60;99.90
19415;DHT22;9843;48.882;12.592;2022-11-20T07:24:32;2.60;99.90
19415;DHT22;9843;48.882;12.592;2022-11-20T07:26:59;2.50;99.90
19415;DHT22;9843;48.882;12.592;2022-11-20T07:29:26;2.50;99.90
19415;DHT22;9843;48.882;12.592;2022-11-20T07:31:54;2.60;99.90
19415;DHT22;9843;48.882;12.592;2022-11-20T07:34:22;2.60;99.90
19415;DHT22;9843;48.882;12.592;2022-11-20T07:36:48;2.50;99.90
19415;DHT22;9843;48.882;12.592;2022-11-20T07:39:15;2.50;99.90
19415;DHT22;9843;48.882;12.592;2022-11-20T07:41:42;2.50;99.90
19415;DHT22;9843;48.882;12.592;2022-11-20T07:44:09;2.60;99.90
19415;DHT22;9843;48.882;12.592;2022-11-20T07:46:36;2.60;99.90
19415;DHT22;9843;48.882;12.592;2022-11-20T07:49:04;2.60;99.90
19415;DHT22;9843;48.882;12.592;2022-11-20T07:51:31;2.60;99.90
19415;DHT22;9843;48.882;12.592;2022-11-20T07:53:57;2.60;99.90
19415;DHT22;9843;48.882;12.592;2022-11-20T07:56:24;2.60;99.90
19415;DHT22;9843;48.882;12.592;2022-11-20T07:58:51;2.70;99.90
19415;DHT22;9843;48.882;12.592;2022-11-20T08:03:45;2.70;99.90
19415;DHT22;9843;48.882;12.592;2022-11-20T08:06:13;2.70;99.90
19415;DHT22;9843;48.882;12.592;2022-11-20T08:08:41;2.70;99.90
19415;DHT22;9843;48.882;12.592;2022-11-20T08:11:07;2.80;99.90
19415;DHT22;9843;48.882;12.592;2022-11-20T08:13:52;2.90;99.90
19415;DHT22;9843;48.882;12.592;2022-11-20T08:16:36;2.90;99.90
19415;DHT22;9843;48.882;12.592;2022-11-20T08:19:03;2.90;99.90
19415;DHT22;9843;48.882;12.592;2022-11-20T08:21:31;3.00;99.90
19415;DHT22;9843;48.882;12.592;2022-11-20T08:23:58;3.10;99.90
19415;DHT22;9843;48.882;12.592;2022-11-20T08:26:25;3.20;99.90
19415;DHT22;9843;48.882;12.592;2022-11-20T08:28:53;3.30;99.90
19415;DHT22;9843;48.882;12.592;2022-11-20T08:31:21;3.30;99.90
19415;DHT22;9843;48.882;12.592;2022-11-20T08:33:47;3.40;99.90
19415;DHT22;9843;48.882;12.592;2022-11-20T08:36:14;3.30;99.90
19415;DHT22;9843;48.882;12.592;2022-11-20T08:38:47;3.30;99.90
19415;DHT22;9843;48.882;12.592;2022-11-20T08:41:13;3.40;99.90
19415;DHT22;9843;48.882;12.592;2022-11-20T08:43:55;3.50;99.90
19415;DHT22;9843;48.882;12.592;2022-11-20T08:46:23;3.50;99.90
19415;DHT22;9843;48.882;12.592;2022-11-20T08:48:50;3.50;99.90
19415;DHT22;9843;48.882;12.592;2022-11-20T08:51:17;3.60;99.90
19415;DHT22;9843;48.882;12.592;2022-11-20T08:53:46;3.70;99.90
19415;DHT22;9843;48.882;12.592;2022-11-20T08:56:14;3.70;99.90
19415;DHT22;9843;48.882;12.592;2022-11-20T08:58:41;3.80;99.90
19415;DHT22;9843;48.882;12.592;2022-11-20T09:01:07;3.90;99.90
19415;DHT22;9843;48.882;12.592;2022-11-20T09:03:34;3.90;99.90
19415;DHT22;9843;48.882;12.592;2022-11-20T09:06:04;3.90;99.90
19415;DHT22;9843;48.882;12.592;2022-11-20T09:08:32;4.00;99.90
19415;DHT22;9843;48.882;12.592;2022-11-20T09:11:00;4.10;99.90
19415;DHT22;9843;48.882;12.592;2022-11-20T09:13:28;4.00;99.90
19415;DHT22;9843;48.882;12.592;2022-11-20T09:15:56;4.00;99.90
19415;DHT22;9843;48.882;12.592;2022-11-20T09:18:23;4.10;99.90
19415;DHT22;9843;48.882;12.592;2022-11-20T09:20:50;4.00;99.90
19415;DHT22;9843;48.882;12.592;2022-11-20T09:23:17;3.90;99.90
19415;DHT22;9843;48.882;12.592;2022-11-20T09:25:44;4.00;99.90
19415;DHT22;9843;48.882;12.592;2022-11-20T09:28:12;4.10;99.90
19415;DHT22;9843;48.882;12.592;2022-11-20T09:30:39;4.10;99.90
19415;DHT22;9843;48.882;12.592;2022-11-20T09:33:06;4.20;99.90
19415;DHT22;9843;48.882;12.592;2022-11-20T09:35:33;4.20;99.90
19415;DHT22;9843;48.882;12.592;2022-11-20T09:38:04;4.40;99.90
19415;DHT22;9843;48.882;12.592;2022-11-20T09:40:31;4.40;99.90
19415;DHT22;9843;48.882;12.592;2022-11-20T09:43:03;4.40;99.90
19415;DHT22;9843;48.882;12.592;2022-11-20T09:45:49;4.40;99.90
19415;DHT22;9843;48.882;12.592;2022-11-20T09:51:34;4.50;99.90
19415;DHT22;9843;48.882;12.592;2022-11-20T09:54:13;4.60;99.90
19415;DHT22;9843;48.882;12.592;2022-11-20T09:56:44;4.50;99.90
19415;DHT22;9843;48.882;12.592;2022-11-20T09:59:26;4.60;99.90
19415;DHT22;9843;48.882;12.592;2022-11-20T10:01:57;4.60;99.90
19415;DHT22;9843;48.882;12.592;2022-11-20T10:04:25;4.60;99.90
19415;DHT22;9843;48.882;12.592;2022-11-20T10:07:00;4.70;99.90
19415;DHT22;9843;48.882;12.592;2022-11-20T10:09:31;4.80;99.90
19415;DHT22;9843;48.882;12.592;2022-11-20T10:12:09;4.80;99.90
19415;DHT22;9843;48.882;12.592;2022-11-20T10:14:46;4.80;99.90
19415;DHT22;9843;48.882;12.592;2022-11-20T10:17:23;4.70;99.90
19415;DHT22;9843;48.882;12.592;2022-11-20T10:20:06;5.00;99.90
19415;DHT22;9843;48.882;12.592;2022-11-20T10:22:51;5.00;99.90
19415;DHT22;9843;48.882;12.592;2022-11-20T10:25:22;5.00;99.90
19415;DHT22;9843;48.882;12.592;2022-11-20T10:28:06;5.00;99.90
19415;DHT22;9843;48.882;12.592;2022-11-20T10:30:38;5.10;99.90
19415;DHT22;9843;48.882;12.592;2022-11-20T10:33:13;5.10;99.90
19415;DHT22;9843;48.882;12.592;2022-11-20T10:35:45;5.10;99.90
19415;DHT22;9843;48.882;12.592;2022-11-20T10:38:18;5.10;99.90
19415;DHT22;9843;48.882;12.592;2022-11-20T10:40:50;5.00;99.90
19415;DHT22;9843;48.882;12.592;2022-11-20T10:43:29;5.00;99.90
19415;DHT22;9843;48.882;12.592;2022-11-20T10:46:01;5.00;99.90
19415;DHT22;9843;48.882;12.592;2022-11-20T10:48:32;4.90;99.90
19415;DHT22;9843;48.882;12.592;2022-11-20T10:51:22;4.90;99.90
19415;DHT22;9843;48.882;12.592;2022-11-20T10:53:57;4.80;99.90
19415;DHT22;9843;48.882;12.592;2022-11-20T10:56:31;4.80;99.90
19415;DHT22;9843;48.882;12.592;2022-11-20T10:59:11;4.80;99.90
19415;DHT22;9843;48.882;12.592;2022-11-20T11:01:43;4.90;99.90
19415;DHT22;9843;48.882;12.592;2022-11-20T11:04:23;5.00;99.90
19415;DHT22;9843;48.882;12.592;2022-11-20T11:06:56;4.80;99.90
19415;DHT22;9843;48.882;12.592;2022-11-20T11:09:32;4.90;99.90
19415;DHT22;9843;48.882;12.592;2022-11-20T11:12:00;4.80;99.90
19415;DHT22;9843;48.882;12.592;2022-11-20T11:14:26;4.90;99.90
19415;DHT22;9843;48.882;12.592;2022-11-20T11:16:55;4.80;99.90
19415;DHT22;9843;48.882;12.592;2022-11-20T11:19:24;4.90;99.90
19415;DHT22;9843;48.882;12.592;2022-11-20T11:21:53;4.80;99.90
19415;DHT22;9843;48.882;12.592;2022-11-20T11:24:22;4.80;99.90
19415;DHT22;9843;48.882;12.592;2022-11-20T11:26:56;4.80;99.90
19415;DHT22;9843;48.882;12.592;2022-11-20T11:29:23;4.80;99.90
19415;DHT22;9843;48.882;12.592;2022-11-20T11:32:03;4.70;99.90
19415;DHT22;9843;48.882;12.592;2022-11-20T11:34:32;4.80;99.90
19415;DHT22;9843;48.882;12.592;2022-11-20T11:37:00;4.80;99.90
19415;DHT22;9843;48.882;12.592;2022-11-20T11:39:30;4.80;99.90
19415;DHT22;9843;48.882;12.592;2022-11-20T11:41:58;4.90;99.90
19415;DHT22;9843;48.882;12.592;2022-11-20T11:44:30;4.80;99.90
19415;DHT22;9843;48.882;12.592;2022-11-20T11:47:22;4.80;99.90
19415;DHT22;9843;48.882;12.592;2022-11-20T11:50:07;4.90;99.90
19415;DHT22;9843;48.882;12.592;2022-11-20T11:52:43;4.90;99.90
19415;DHT22;9843;48.882;12.592;2022-11-20T11:55:15;5.10;99.90
19415;DHT22;9843;48.882;12.592;2022-11-20T11:57:47;5.10;99.90
19415;DHT22;9843;48.882;12.592;2022-11-20T12:00:19;5.10;99.90
19415;DHT22;9843;48.882;12.592;2022-11-20T12:02:57;5.10;99.90
19415;DHT22;9843;48.882;12.592;2022-11-20T12:05:32;5.10;99.90
19415;DHT22;9843;48.882;12.592;2022-11-20T12:08:06;5.10;99.90
19415;DHT22;9843;48.882;12.592;2022-11-20T12:10:43;5.10;99.90
19415;DHT22;9843;48.882;12.592;2022-11-20T12:16:02;5.20;99.90
19415;DHT22;9843;48.882;12.592;2022-11-20T12:18:29;5.30;99.90
19415;DHT22;9843;48.882;12.592;2022-11-20T12:21:07;5.30;99.90
19415;DHT22;9843;48.882;12.592;2022-11-20T12:23:43;5.30;99.90
19415;DHT22;9843;48.882;12.592;2022-11-20T12:26:19;5.30;99.90
19415;DHT22;9843;48.882;12.592;2022-11-20T12:28:59;5.30;99.90
19415;DHT22;9843;48.882;12.592;2022-11-20T12:31:42;5.40;99.90
19415;DHT22;9843;48.882;12.592;2022-11-20T12:34:31;5.40;99.90
19415;DHT22;9843;48.882;12.592;2022-11-20T12:37:09;5.40;99.90
19415;DHT22;9843;48.882;12.592;2022-11-20T12:39:41;5.50;99.90
19415;DHT22;9843;48.882;12.592;2022-11-20T12:42:20;5.50;99.90
19415;DHT22;9843;48.882;12.592;2022-11-20T12:45:20;5.50;99.90
19415;DHT22;9843;48.882;12.592;2022-11-20T12:48:11;5.60;99.90
19415;DHT22;9843;48.882;12.592;2022-11-20T12:50:51;5.50;99.90
19415;DHT22;9843;48.882;12.592;2022-11-20T12:53:27;5.60;99.90
19415;DHT22;9843;48.882;12.592;2022-11-20T12:56:00;5.60;99.90
19415;DHT22;9843;48.882;12.592;2022-11-20T12:58:34;5.70;99.90
19415;DHT22;9843;48.882;12.592;2022-11-20T13:01:12;5.80;99.90
19415;DHT22;9843;48.882;12.592;2022-11-20T13:04:12;5.80;99.90
19415;DHT22;9843;48.882;12.592;2022-11-20T13:06:43;6.00;99.90
19415;DHT22;9843;48.882;12.592;2022-11-20T13:09:14;5.90;99.90
19415;DHT22;9843;48.882;12.592;2022-11-20T13:11:46;6.10;99.90
19415;DHT22;9843;48.882;12.592;2022-11-20T13:14:26;6.10;99.90
19415;DHT22;9843;48.882;12.592;2022-11-20T13:17:00;6.10;99.90
19415;DHT22;9843;48.882;12.592;2022-11-20T13:19:32;6.20;99.90
19415;DHT22;9843;48.882;12.592;2022-11-20T13:21:59;6.20;99.90
19415;DHT22;9843;48.882;12.592;2022-11-20T13:24:29;6.20;99.90
19415;DHT22;9843;48.882;12.592;2022-11-20T13:27:04;6.20;99.90
19415;DHT22;9843;48.882;12.592;2022-11-20T13:29:32;6.20;99.90
19415;DHT22;9843;48.882;12.592;2022-11-20T13:32:04;6.20;99.90
19415;DHT22;9843;48.882;12.592;2022-11-20T13:34:32;6.30;99.90
19415;DHT22;9843;48.882;12.592;2022-11-20T13:37:00;6.30;99.90
19415;DHT22;9843;48.882;12.592;2022-11-20T13:39:32;6.30;99.90
19415;DHT22;9843;48.882;12.592;2022-11-20T13:42:23;6.40;99.90
19415;DHT22;9843;48.882;12.592;2022-11-20T13:44:55;6.40;99.90
19415;DHT22;9843;48.882;12.592;2022-11-20T13:47:27;6.50;99.90
19415;DHT22;9843;48.882;12.592;2022-11-20T13:49:57;6.50;99.90
19415;DHT22;9843;48.882;12.592;2022-11-20T13:52:38;6.50;99.90
19415;DHT22;9843;48.882;12.592;2022-11-20T13:55:16;6.50;99.90
19415;DHT22;9843;48.882;12.592;2022-11-20T13:58:15;6.60;99.90
19415;DHT22;9843;48.882;12.592;2022-11-20T14:00:51;6.60;99.90
19415;DHT22;9843;48.882;12.592;2022-11-20T14:03:23;6.70;99.90
19415;DHT22;9843;48.882;12.592;2022-11-20T14:05:57;6.70;99.90
19415;DHT22;9843;48.882;12.592;2022-11-20T14:08:32;6.60;99.90
19415;DHT22;9843;48.882;12.592;2022-11-20T14:11:14;6.60;99.90
19415;DHT22;9843;48.882;12.592;2022-11-20T14:13:56;6.70;99.90
19415;DHT22;9843;48.882;12.592;2022-11-20T14:16:24;6.60;99.90
19415;DHT22;9843;48.882;12.592;2022-11-20T14:18:52;6.70;99.90
19415;DHT22;9843;48.882;12.592;2022-11-20T14:21:23;6.70;99.90
19415;DHT22;9843;48.882;12.592;2022-11-20T14:23:53;6.60;99.90
19415;DHT22;9843;48.882;12.592;2022-11-20T14:26:21;6.60;99.90
19415;DHT22;9843;48.882;12.592;2022-11-20T14:28:49;6.60;99.90
19415;DHT22;9843;48.882;12.592;2022-11-20T14:31:22;6.50;99.90
19415;DHT22;9843;48.882;12.592;2022-11-20T14:33:50;6.60;99.90
19415;DHT22;9843;48.882;12.592;2022-11-20T14:36:20;6.50;99.90
19415;DHT22;9843;48.882;12.592;2022-11-20T14:38:48;6.50;99.90
19415;DHT22;9843;48.882;12.592;2022-11-20T14:41:18;6.50;99.90
19415;DHT22;9843;48.882;12.592;2022-11-20T14:43:53;6.50;99.90
19415;DHT22;9843;48.882;12.592;2022-11-20T14:46:21;6.50;99.90
19415;DHT22;9843;48.882;12.592;2022-11-20T14:48:50;6.50;99.90
19415;DHT22;9843;48.882;12.592;2022-11-20T14:51:27;6.40;99.90
19415;DHT22;9843;48.882;12.592;2022-11-20T14:53:54;6.40;99.90
19415;DHT22;9843;48.882;12.592;2022-11-20T14:56:22;6.50;99.90
19415;DHT22;9843;48.882;12.592;2022-11-20T14:58:57;6.40;99.90
19415;DHT22;9843;48.882;12.592;2022-11-20T15:01:27;6.50;99.90
19415;DHT22;9843;48.882;12.592;2022-11-20T15:04:00;6.50;99.90
19415;DHT22;9843;48.882;12.592;2022-11-20T15:06:28;6.40;99.90
19415;DHT22;9843;48.882;12.592;2022-11-20T15:08:57;6.40;99.90
19415;DHT22;9843;48.882;12.592;2022-11-20T15:11:29;6.50;99.90
19415;DHT22;9843;48.882;12.592;2022-11-20T15:14:02;6.70;99.90
19415;DHT22;9843;48.882;12.592;2022-11-20T15:16:30;6.40;99.90
19415;DHT22;9843;48.882;12.592;2022-11-20T15:18:57;6.70;99.90
19415;DHT22;9843;48.882;12.592;2022-11-20T15:21:24;6.50;99.90
19415;DHT22;9843;48.882;12.592;2022-11-20T15:23:51;6.40;99.90
19415;DHT22;9843;48.882;12.592;2022-11-20T15:26:23;6.40;99.90
19415;DHT22;9843;48.882;12.592;2022-11-20T15:28:51;6.40;99.90
19415;DHT22;9843;48.882;12.592;2022-11-20T15:31:22;6.40;99.90
19415;DHT22;9843;48.882;12.592;2022-11-20T15:33:49;6.40;99.90
19415;DHT22;9843;48.882;12.592;2022-11-20T15:36:16;6.40;99.90
19415;DHT22;9843;48.882;12.592;2022-11-20T15:38:57;6.40;99.90
19415;DHT22;9843;48.882;12.592;2022-11-20T15:41:24;6.40;99.90
19415;DHT22;9843;48.882;12.592;2022-11-20T15:43:53;6.40;99.90
19415;DHT22;9843;48.882;12.592;2022-11-20T15:46:26;6.40;99.90
19415;DHT22;9843;48.882;12.592;2022-11-20T15:48:56;6.40;99.90
19415;DHT22;9843;48.882;12.592;2022-11-20T15:51:27;6.30;99.90
19415;DHT22;9843;48.882;12.592;2022-11-20T15:53:55;6.40;99.90
19415;DHT22;9843;48.882;12.592;2022-11-20T15:56:22;6.50;99.90
19415;DHT22;9843;48.882;12.592;2022-11-20T15:58:49;6.40;99.90
19415;DHT22;9843;48.882;12.592;2022-11-20T16:01:18;6.40;99.90
19415;DHT22;9843;48.882;12.592;2022-11-20T16:03:46;6.30;99.90
19415;DHT22;9843;48.882;12.592;2022-11-20T16:06:14;6.40;99.90
19415;DHT22;9843;48.882;12.592;2022-11-20T16:08:41;6.40;99.90
19415;DHT22;9843;48.882;12.592;2022-11-20T16:11:10;6.30;99.90
19415;DHT22;9843;48.882;12.592;2022-11-20T16:13:39;6.30;99.90